LQSA Airport Information

Runway Information
Runway 12 Length 8666 ft width 150 ft
Elevation 1643 ft Threshold 333 ft Heading 117
Runway 30 Length 8666 ft Width 150 ft
Elevation 1690 ft Threshold 1666 ft Heading 297
Airport Frequencies
Type APP Name APP Frequency 136.45 MHZ
Type GCA Name GCA Frequency 119.4 MHZ
Type GND Name GND Frequency 121.9 MHZ
Type TWR Name TWR Frequency 118.25 MHZ
Airport Navaids
Type NDB Name Sarajevo Frequency 436 KHZ
Type VOR-DME Name Sarajevo Frequency 116700 KHZ
Type NDB Name Kobiljaca Frequency 358 KHZ
Type VORTAC Name Sarajevo Frequency 108850 KHZ
Airport Weather Information & NOTAM
ADDS - METARS form results

(1243 UTC 24 January 2019)
Data provider http://aviationweather.gov/metar/data/
 
METAR text: LQSA 241230Z 31003KT 290V360 8000 FEW020 OVC030 M00/M01 Q0999 NOSIG
Conditions at: LQSA (SARAJEVO/BUTMIR , CS) observed 1230 UTC 24 January 2019
Temperature: 0.0°C (32°F)
Dewpoint: -1.0°C (30°F) [RH = 93%]
Pressure (altimeter): 29.50 inches Hg (999.0 mb)
Winds: from the NW (310 degrees) at 3 MPH (3 knots; 1.5 m/s)
Visibility: 5 miles ( 8 km)
Ceiling: 3000 feet AGL
Clouds: few clouds at 2000 feet AGL
overcast cloud deck at 3000 feet AGL
Weather: no significant weather observed at this time

METAR text: LQSA 241200Z 33004KT 290V030 8000 FEW020 OVC028 M01/M01 Q1000 NOSIG
Conditions at: LQSA (SARAJEVO/BUTMIR , CS) observed 1200 UTC 24 January 2019
Temperature: -1.0°C (30°F)
Dewpoint: -1.0°C (30°F) [RH = 100%]
Pressure (altimeter): 29.53 inches Hg (1000.0 mb)
Winds: from the NNW (330 degrees) at 5 MPH (4 knots; 2.1 m/s)
Visibility: 5 miles ( 8 km)
Ceiling: 2800 feet AGL
Clouds: few clouds at 2000 feet AGL
overcast cloud deck at 2800 feet AGL
Weather: no significant weather observed at this time

Forecast for: LQSA (SARAJEVO/BUTMIR , CS)
Text: TAF LQSA 241100Z 2412/2512 33006KT 8000 OVC025 TXM00/2413Z TNM04/2503Z
Forecast period: 1200 UTC 24 January 2019 to 1200 UTC 25 January 2019
Forecast type: FROM: standard forecast or significant change
Winds: from the NNW (330 degrees) at 7 MPH (6 knots; 3.1 m/s)
Visibility: 5 miles (8 km)
Ceiling: 2500 feet AGL
Clouds: overcast cloud deck at 2500 feet AGL
Weather: no significant weather forecast for this period
Text: TEMPO 2508/2512 3000 SN BKN005 BKN020
Forecast period: 0800 to 1200 UTC 25 January 2019
Forecast type: TEMPORARY: The following changes expected for less than half the time period
Visibility: 1.86 miles (2.99 km)
Ceiling: 500 feet AGL
Clouds: broken clouds at 500 feet AGL
broken clouds at 2000 feet AGL
Weather: SN  (moderate snow)
Text: PROB30
Forecast period: 0800 to 1200 UTC 25 January 2019
Forecast type: TEMPORARY: The following changes expected for less than half the time period
Winds: from the NNW (330 degrees) at 18 MPH (16 knots; 8.2 m/s)
Visibility: missing
Ceiling: unknown
Clouds: missing
Weather: no significant weather forecast for this period